createdAt,value
2023-01-13T00:01:10.335Z,12.09
2023-01-13T00:03:38.840Z,12.03
2023-01-13T00:06:09.103Z,11.95
2023-01-13T00:08:36.949Z,12.05
2023-01-13T00:11:04.845Z,11.96
2023-01-13T00:13:35.308Z,11.99
2023-01-13T00:16:05.244Z,12.02
2023-01-13T00:18:33.687Z,12.01
2023-01-13T00:21:02.364Z,11.83
2023-01-13T00:23:34.174Z,11.92
2023-01-13T00:26:03.630Z,11.94
2023-01-13T00:28:31.577Z,11.92
2023-01-13T00:31:06.490Z,11.82
2023-01-13T00:33:34.524Z,11.73
2023-01-13T00:36:03.666Z,11.76
2023-01-13T00:38:34.492Z,11.79
2023-01-13T00:41:05.127Z,11.76
2023-01-13T00:43:33.494Z,11.72
2023-01-13T00:46:02.038Z,11.64
2023-01-13T00:48:31.547Z,11.60
2023-01-13T00:51:01.023Z,11.49
2023-01-13T00:53:30.292Z,11.42
2023-01-13T00:56:03.861Z,11.40
2023-01-13T00:58:33.546Z,11.28
2023-01-13T01:01:02.520Z,11.22
2023-01-13T01:03:31.903Z,11.23
2023-01-13T01:06:06.675Z,11.12
2023-01-13T01:08:35.244Z,11.11
2023-01-13T01:11:06.003Z,11.00
2023-01-13T01:13:34.026Z,11.03
2023-01-13T01:16:07.115Z,10.98
2023-01-13T01:18:35.155Z,10.99
2023-01-13T01:21:03.474Z,10.91
2023-01-13T01:23:32.184Z,10.91
2023-01-13T01:26:02.276Z,10.98
2023-01-13T01:28:31.919Z,11.06
2023-01-13T01:30:59.992Z,11.09
2023-01-13T01:33:28.706Z,10.96
2023-01-13T01:35:56.621Z,11.02
2023-01-13T01:38:24.456Z,11.03
2023-01-13T01:40:52.364Z,10.99
2023-01-13T01:43:39.629Z,10.92
2023-01-13T01:46:08.918Z,10.94
2023-01-13T01:48:44.196Z,10.94
2023-01-13T01:51:14.945Z,10.80
2023-01-13T01:53:43.001Z,10.83
2023-01-13T01:56:11.909Z,10.78
2023-01-13T01:58:45.611Z,10.85
2023-01-13T02:01:15.703Z,10.88
2023-01-13T02:03:49.774Z,10.72
2023-01-13T02:06:18.021Z,10.85
2023-01-13T02:08:47.062Z,10.84
2023-01-13T02:11:42.723Z,10.74
2023-01-13T02:14:10.545Z,10.65
2023-01-13T02:16:44.375Z,10.63
2023-01-13T02:19:38.055Z,10.53
2023-01-13T02:22:24.047Z,10.58
2023-01-13T02:25:16.510Z,10.49
2023-01-13T02:28:07.901Z,10.46
2023-01-13T02:31:01.178Z,10.54
2023-01-13T02:33:46.545Z,10.52
2023-01-13T02:36:21.005Z,10.58
2023-01-13T02:38:53.723Z,10.61
2023-01-13T02:41:46.542Z,10.60
2023-01-13T02:44:21.668Z,10.54
2023-01-13T02:46:57.229Z,10.48
2023-01-13T02:49:34.599Z,10.50
2023-01-13T02:52:09.506Z,10.48
2023-01-13T02:54:40.424Z,10.37
2023-01-13T02:57:12.895Z,10.40
2023-01-13T02:59:42.241Z,10.34
2023-01-13T03:02:19.896Z,10.31
2023-01-13T03:04:54.271Z,10.40
2023-01-13T03:07:49.222Z,10.59
2023-01-13T03:10:29.031Z,10.48
2023-01-13T03:13:09.321Z,10.44
2023-01-13T03:15:45.618Z,10.31
2023-01-13T03:18:27.614Z,10.33
2023-01-13T03:21:05.959Z,10.34
2023-01-13T03:23:41.669Z,10.37
2023-01-13T03:26:16.991Z,10.34
2023-01-13T03:28:50.349Z,10.39
2023-01-13T03:31:25.860Z,10.39
2023-01-13T03:34:00.573Z,10.37
2023-01-13T03:36:31.705Z,10.41
2023-01-13T03:39:04.926Z,10.36
2023-01-13T03:41:37.894Z,10.27
2023-01-13T03:44:24.986Z,10.24
2023-01-13T03:47:02.440Z,10.10
2023-01-13T03:49:38.732Z,10.03
2023-01-13T03:52:11.254Z,9.98
2023-01-13T03:54:46.321Z,9.95
2023-01-13T03:57:17.181Z,9.89
2023-01-13T03:59:48.394Z,9.82
2023-01-13T04:02:21.305Z,9.90
2023-01-13T04:04:56.056Z,9.86
2023-01-13T04:07:32.519Z,9.93
2023-01-13T04:10:03.748Z,9.90
2023-01-13T04:12:47.500Z,9.93
2023-01-13T04:15:15.662Z,9.79
2023-01-13T04:17:43.570Z,9.82
2023-01-13T04:20:13.835Z,9.87
2023-01-13T04:22:41.706Z,9.80
2023-01-13T04:25:11.356Z,9.81
2023-01-13T04:27:39.518Z,9.78
2023-01-13T04:30:08.535Z,9.76
2023-01-13T04:32:36.392Z,9.80
2023-01-13T04:35:04.746Z,9.84
2023-01-13T04:37:34.689Z,9.76
2023-01-13T04:40:02.593Z,9.71
2023-01-13T04:42:30.678Z,9.65
2023-01-13T04:44:58.564Z,9.64
2023-01-13T04:47:26.455Z,9.65
2023-01-13T04:49:54.297Z,9.62
2023-01-13T04:52:22.162Z,9.59
2023-01-13T04:54:51.378Z,9.53
2023-01-13T04:57:19.427Z,9.45
2023-01-13T04:59:47.220Z,9.43
2023-01-13T05:02:19.987Z,9.40
2023-01-13T05:04:48.337Z,9.41
2023-01-13T05:07:17.164Z,9.45
2023-01-13T05:09:45.048Z,9.47
2023-01-13T05:12:31.971Z,9.47
2023-01-13T05:15:17.769Z,9.45
2023-01-13T05:17:45.893Z,9.39
2023-01-13T05:20:14.437Z,9.39
2023-01-13T05:23:00.173Z,9.42
2023-01-13T05:25:28.294Z,9.42
2023-01-13T05:27:59.110Z,9.34
2023-01-13T05:30:29.474Z,9.39
2023-01-13T05:32:57.870Z,9.38
2023-01-13T05:35:25.936Z,9.34
2023-01-13T05:37:55.522Z,9.32
2023-01-13T05:40:52.703Z,9.32
2023-01-13T05:43:24.588Z,9.29
2023-01-13T05:45:57.593Z,9.33
2023-01-13T05:48:27.181Z,9.39
2023-01-13T05:50:55.400Z,9.51
2023-01-13T05:53:24.357Z,9.58
2023-01-13T05:55:52.865Z,9.61
2023-01-13T05:58:23.876Z,9.59
2023-01-13T06:00:51.874Z,9.61
2023-01-13T06:03:21.203Z,9.67
2023-01-13T06:05:50.403Z,9.54
2023-01-13T06:08:19.092Z,9.60
2023-01-13T06:10:47.367Z,9.65
2023-01-13T06:13:15.224Z,9.63
2023-01-13T06:15:44.514Z,9.63
2023-01-13T06:18:12.435Z,9.48
2023-01-13T06:20:40.287Z,9.49
2023-01-13T06:23:10.869Z,9.52
2023-01-13T06:25:45.682Z,9.56
2023-01-13T06:28:13.568Z,9.58
2023-01-13T06:30:47.907Z,9.50
2023-01-13T06:33:19.282Z,9.49
2023-01-13T06:35:53.069Z,9.53
2023-01-13T06:38:22.949Z,9.42
2023-01-13T06:40:51.222Z,9.38
2023-01-13T06:43:18.400Z,9.40
2023-01-13T06:45:50.406Z,9.38
2023-01-13T06:48:19.910Z,9.43
2023-01-13T06:50:47.724Z,9.60
2023-01-13T06:53:15.569Z,9.57
2023-01-13T06:55:43.530Z,9.49
2023-01-13T06:58:11.374Z,9.58
2023-01-13T07:00:39.904Z,9.63
2023-01-13T07:03:11.554Z,9.58
2023-01-13T07:05:40.025Z,9.56
2023-01-13T07:08:08.346Z,9.68
2023-01-13T07:10:37.364Z,9.65
2023-01-13T07:13:29.199Z,9.73
2023-01-13T07:15:59.077Z,9.64
2023-01-13T07:18:31.489Z,9.80
2023-01-13T07:21:01.507Z,9.81
2023-01-13T07:23:29.978Z,9.73
2023-01-13T07:25:58.138Z,9.75
2023-01-13T07:28:26.237Z,9.82
2023-01-13T07:30:54.481Z,9.93
2023-01-13T07:33:22.783Z,9.89
2023-01-13T07:35:57.928Z,9.87
2023-01-13T07:38:33.366Z,9.90
2023-01-13T07:41:22.993Z,9.89
2023-01-13T07:43:50.662Z,9.92
2023-01-13T07:46:19.785Z,9.93
2023-01-13T07:48:48.527Z,9.94
2023-01-13T07:51:17.708Z,10.08
2023-01-13T07:53:45.643Z,10.01
2023-01-13T07:56:13.604Z,9.96
2023-01-13T07:58:41.551Z,9.97
2023-01-13T08:01:10.773Z,9.79
2023-01-13T08:03:39.621Z,9.73
2023-01-13T08:06:08.685Z,9.79
2023-01-13T08:08:38.213Z,9.80
2023-01-13T08:11:08.436Z,9.78
2023-01-13T08:13:36.388Z,9.86
2023-01-13T08:16:06.707Z,9.86
2023-01-13T08:18:35.702Z,9.88
2023-01-13T08:21:05.884Z,10.00
2023-01-13T08:23:34.194Z,9.99
2023-01-13T08:26:05.036Z,10.12
2023-01-13T08:28:33.013Z,10.19
2023-01-13T08:31:01.714Z,10.14
2023-01-13T08:33:30.398Z,10.14
2023-01-13T08:35:58.723Z,10.02
2023-01-13T08:38:26.828Z,10.19
2023-01-13T08:40:54.971Z,10.21
2023-01-13T08:43:24.197Z,10.37
2023-01-13T08:45:59.344Z,10.49
2023-01-13T08:48:29.770Z,10.43
2023-01-13T08:51:03.483Z,10.41
2023-01-13T08:53:31.330Z,10.50
2023-01-13T08:55:59.198Z,10.37
2023-01-13T08:58:28.588Z,10.41
2023-01-13T09:00:56.519Z,10.36
2023-01-13T09:03:24.393Z,10.35
2023-01-13T09:05:52.360Z,10.41
2023-01-13T09:08:20.379Z,10.34
2023-01-13T09:10:48.485Z,10.21
2023-01-13T09:13:16.109Z,10.30
2023-01-13T09:15:47.324Z,10.23
2023-01-13T09:18:16.046Z,10.22
2023-01-13T09:20:44.741Z,10.18
2023-01-13T09:23:12.574Z,10.18
2023-01-13T09:25:40.766Z,10.20
2023-01-13T09:28:09.199Z,10.28
2023-01-13T09:30:38.703Z,10.42
2023-01-13T09:33:25.498Z,10.53
2023-01-13T09:35:53.417Z,10.58
2023-01-13T09:38:21.416Z,10.54
2023-01-13T09:40:50.924Z,10.62
2023-01-13T09:43:41.936Z,10.55
2023-01-13T09:46:33.438Z,10.61
2023-01-13T09:49:03.823Z,10.56
2023-01-13T09:51:38.771Z,10.66
2023-01-13T09:54:16.187Z,10.76
2023-01-13T09:56:44.557Z,10.80
2023-01-13T09:59:13.254Z,10.69
2023-01-13T10:01:49.217Z,10.75
2023-01-13T10:04:18.584Z,10.79
2023-01-13T10:06:52.349Z,10.78
2023-01-13T10:09:26.923Z,10.58
2023-01-13T10:12:16.646Z,10.47
2023-01-13T10:14:51.161Z,10.57
2023-01-13T10:17:25.122Z,10.57
2023-01-13T10:20:00.746Z,10.73
2023-01-13T10:22:48.652Z,10.67
2023-01-13T10:25:32.303Z,10.65
2023-01-13T10:28:09.266Z,10.71
2023-01-13T10:30:40.158Z,10.78
2023-01-13T10:33:13.361Z,10.74
2023-01-13T10:35:57.965Z,10.68
2023-01-13T10:38:27.828Z,10.73
2023-01-13T10:40:57.279Z,10.99
2023-01-13T10:43:27.708Z,10.87
2023-01-13T10:46:00.656Z,10.82
2023-01-13T10:48:41.222Z,10.78
2023-01-13T10:51:29.146Z,10.83
2023-01-13T10:54:01.187Z,10.85
2023-01-13T10:56:32.307Z,10.95
2023-01-13T10:59:23.433Z,10.89
2023-01-13T11:02:01.161Z,10.90
2023-01-13T11:04:36.623Z,10.82
2023-01-13T11:07:19.196Z,10.55
2023-01-13T11:09:47.214Z,10.41
2023-01-13T11:12:32.098Z,10.31
2023-01-13T11:15:03.659Z,10.21
2023-01-13T11:17:40.435Z,10.10
2023-01-13T11:20:20.456Z,10.07
2023-01-13T11:22:53.001Z,10.07
2023-01-13T11:25:25.378Z,9.91
2023-01-13T11:27:58.935Z,9.82
2023-01-13T11:30:34.840Z,9.99
2023-01-13T11:33:18.207Z,9.96
2023-01-13T11:35:51.115Z,9.96
2023-01-13T11:38:32.955Z,10.03
2023-01-13T11:41:07.849Z,10.12
2023-01-13T11:43:44.552Z,10.22
2023-01-13T11:46:12.532Z,10.36
2023-01-13T11:48:43.444Z,10.38
2023-01-13T11:51:24.164Z,10.22
2023-01-13T11:54:11.527Z,10.28
2023-01-13T11:57:00.077Z,10.20
2023-01-13T11:59:56.161Z,10.33
2023-01-13T12:02:40.371Z,10.43
2023-01-13T12:05:16.187Z,10.45
2023-01-13T12:07:54.553Z,10.29
2023-01-13T12:10:39.878Z,10.27
2023-01-13T12:13:19.631Z,10.31
2023-01-13T12:16:15.119Z,10.28
2023-01-13T12:19:09.230Z,10.17
2023-01-13T12:21:39.993Z,10.17
2023-01-13T12:24:19.237Z,10.13
2023-01-13T12:26:55.690Z,10.22
2023-01-13T12:29:31.994Z,10.24
2023-01-13T12:32:03.151Z,10.20
2023-01-13T12:34:50.862Z,10.30
2023-01-13T12:37:27.223Z,10.25
2023-01-13T12:40:07.113Z,9.98
2023-01-13T12:43:03.277Z,10.06
2023-01-13T12:45:33.201Z,9.84
2023-01-13T12:48:01.847Z,9.90
2023-01-13T12:50:43.438Z,9.93
2023-01-13T12:53:34.773Z,9.97
2023-01-13T12:56:44.724Z,9.80
2023-01-13T12:59:39.441Z,9.80
2023-01-13T13:02:31.497Z,9.76
2023-01-13T13:05:21.899Z,9.91
2023-01-13T13:07:53.687Z,9.73
2023-01-13T13:10:30.550Z,9.75
2023-01-13T13:13:18.179Z,9.85
2023-01-13T13:15:47.050Z,9.84
2023-01-13T13:18:31.017Z,9.80
2023-01-13T13:21:04.173Z,9.89
2023-01-13T13:23:48.395Z,9.82
2023-01-13T13:26:26.372Z,9.89
2023-01-13T13:29:09.942Z,9.88
2023-01-13T13:31:56.536Z,9.87
2023-01-13T13:34:35.152Z,9.86
2023-01-13T13:37:33.164Z,9.86
2023-01-13T13:40:24.369Z,9.89
2023-01-13T13:43:15.390Z,9.97
2023-01-13T13:46:09.522Z,9.90
2023-01-13T13:48:37.412Z,9.83
2023-01-13T13:51:25.671Z,9.64
2023-01-13T13:53:54.724Z,9.47
2023-01-13T13:56:26.818Z,9.53
2023-01-13T13:58:55.558Z,9.46
2023-01-13T14:01:26.411Z,9.48
2023-01-13T14:04:13.442Z,9.50
2023-01-13T14:06:52.880Z,9.63
2023-01-13T14:09:22.439Z,9.64
2023-01-13T14:12:16.416Z,9.73
2023-01-13T14:14:44.805Z,9.69
2023-01-13T14:17:20.598Z,9.65
2023-01-13T14:19:54.145Z,9.59
2023-01-13T14:22:23.645Z,9.68
2023-01-13T14:24:55.694Z,9.80
2023-01-13T14:27:27.424Z,9.60
2023-01-13T14:29:58.135Z,9.60
2023-01-13T14:32:33.855Z,9.76
2023-01-13T14:35:01.945Z,9.73
2023-01-13T14:37:36.267Z,9.70
2023-01-13T14:40:05.319Z,9.66
2023-01-13T14:42:35.487Z,9.72
2023-01-13T14:45:03.895Z,9.58
2023-01-13T14:47:34.152Z,9.69
2023-01-13T14:50:04.952Z,9.85
2023-01-13T14:52:37.332Z,9.86
2023-01-13T14:55:25.777Z,9.77
2023-01-13T14:57:53.680Z,9.89
2023-01-13T15:00:27.675Z,9.71
2023-01-13T15:03:07.277Z,9.65
2023-01-13T15:05:47.403Z,9.84
2023-01-13T15:08:28.526Z,9.74
2023-01-13T15:11:00.880Z,9.79
2023-01-13T15:13:35.722Z,9.71
2023-01-13T15:16:05.777Z,9.79
2023-01-13T15:18:35.791Z,9.74
2023-01-13T15:21:04.253Z,9.60
2023-01-13T15:23:33.502Z,9.66
2023-01-13T15:26:03.092Z,9.43
2023-01-13T15:28:33.034Z,9.37
2023-01-13T15:31:03.791Z,9.33
2023-01-13T15:33:34.357Z,9.16
2023-01-13T15:36:02.857Z,9.20
2023-01-13T15:38:30.764Z,9.02
2023-01-13T15:41:00.506Z,8.99
2023-01-13T15:43:45.913Z,8.84
2023-01-13T15:46:33.414Z,8.86
2023-01-13T15:49:12.742Z,8.79
2023-01-13T15:51:41.206Z,8.77
2023-01-13T15:54:09.527Z,8.80
2023-01-13T15:56:41.476Z,8.88
2023-01-13T15:59:17.479Z,8.91
2023-01-13T16:01:46.602Z,9.04
2023-01-13T16:04:14.620Z,9.16
2023-01-13T16:06:42.586Z,9.21
2023-01-13T16:09:13.654Z,9.10
2023-01-13T16:11:42.852Z,9.10
2023-01-13T16:14:10.709Z,9.13
2023-01-13T16:16:38.685Z,9.14
2023-01-13T16:19:06.579Z,9.17
2023-01-13T16:21:34.463Z,9.13
2023-01-13T16:24:02.452Z,9.07
2023-01-13T16:26:30.690Z,9.12
2023-01-13T16:29:00.112Z,9.08
2023-01-13T16:31:31.856Z,9.10
2023-01-13T16:34:01.110Z,9.12
2023-01-13T16:36:30.296Z,9.13
2023-01-13T16:38:58.660Z,9.09
2023-01-13T16:41:26.657Z,9.13
2023-01-13T16:43:54.991Z,9.04
2023-01-13T16:46:26.580Z,8.80
2023-01-13T16:48:55.782Z,8.85
2023-01-13T16:51:25.255Z,8.69
2023-01-13T16:53:53.803Z,8.74
2023-01-13T16:56:26.016Z,8.83
2023-01-13T16:58:56.009Z,8.87
2023-01-13T17:01:27.097Z,8.95
2023-01-13T17:03:55.798Z,8.99
2023-01-13T17:06:27.680Z,8.96
2023-01-13T17:08:57.732Z,8.96
2023-01-13T17:11:25.631Z,9.08
2023-01-13T17:13:53.465Z,9.11
2023-01-13T17:16:24.377Z,9.19
2023-01-13T17:18:54.364Z,9.14
2023-01-13T17:21:22.413Z,9.12
2023-01-13T17:23:50.390Z,9.09
2023-01-13T17:26:32.334Z,9.10
2023-01-13T17:29:01.887Z,9.02
2023-01-13T17:31:30.091Z,8.90
2023-01-13T17:33:59.713Z,8.95
2023-01-13T17:36:27.700Z,8.88
2023-01-13T17:38:56.581Z,9.02
2023-01-13T17:41:26.073Z,9.02
2023-01-13T17:43:54.510Z,9.08
2023-01-13T17:46:23.207Z,9.14
2023-01-13T17:48:52.734Z,9.12
2023-01-13T17:51:25.215Z,8.92
2023-01-13T17:53:54.824Z,8.98
2023-01-13T17:56:24.707Z,9.13
2023-01-13T17:58:52.579Z,9.21
2023-01-13T18:01:22.285Z,9.18
2023-01-13T18:03:50.761Z,9.13
2023-01-13T18:06:21.058Z,9.16
2023-01-13T18:08:51.053Z,9.11
2023-01-13T18:11:22.225Z,9.23
2023-01-13T18:13:54.780Z,9.08
2023-01-13T18:16:23.127Z,9.05
2023-01-13T18:18:53.272Z,9.06
2023-01-13T18:21:42.171Z,8.98
2023-01-13T18:24:31.660Z,8.86
2023-01-13T18:27:17.736Z,8.84
2023-01-13T18:29:45.799Z,8.85
2023-01-13T18:32:14.399Z,8.91
2023-01-13T18:34:42.603Z,8.84
2023-01-13T18:37:14.659Z,8.80
2023-01-13T18:39:44.161Z,8.81
2023-01-13T18:42:30.685Z,8.83
2023-01-13T18:44:59.403Z,8.82
2023-01-13T18:47:29.786Z,8.81
2023-01-13T18:49:58.022Z,8.87
2023-01-13T18:52:29.968Z,8.94
2023-01-13T18:54:59.424Z,8.81
2023-01-13T18:57:27.629Z,8.88
2023-01-13T18:59:57.337Z,8.80
2023-01-13T19:02:28.275Z,8.83
2023-01-13T19:04:57.364Z,8.79
2023-01-13T19:07:28.665Z,8.87
2023-01-13T19:10:00.626Z,8.97
2023-01-13T19:12:31.135Z,8.94
2023-01-13T19:14:59.877Z,8.78
2023-01-13T19:17:33.253Z,8.88
2023-01-13T19:20:01.759Z,8.71
2023-01-13T19:22:32.661Z,8.63
2023-01-13T19:25:01.311Z,8.75
2023-01-13T19:27:31.436Z,8.70
2023-01-13T19:30:00.733Z,8.58
2023-01-13T19:32:30.929Z,8.57
2023-01-13T19:35:01.010Z,8.57
2023-01-13T19:37:30.380Z,8.68
2023-01-13T19:39:59.453Z,8.67
2023-01-13T19:42:45.238Z,8.77
2023-01-13T19:45:28.310Z,8.76
2023-01-13T19:47:57.330Z,8.78
2023-01-13T19:50:25.400Z,8.86
2023-01-13T19:52:53.813Z,8.80
2023-01-13T19:55:21.685Z,8.79
2023-01-13T19:57:49.641Z,8.90
2023-01-13T20:00:21.115Z,8.87
2023-01-13T20:02:52.032Z,8.79
2023-01-13T20:05:22.776Z,8.71
2023-01-13T20:07:51.451Z,8.72
2023-01-13T20:10:20.760Z,8.71
2023-01-13T20:12:49.073Z,8.72
2023-01-13T20:15:18.744Z,8.70
2023-01-13T20:17:46.637Z,8.73
2023-01-13T20:20:15.838Z,8.87
2023-01-13T20:22:43.885Z,9.02
2023-01-13T20:25:13.296Z,9.02
2023-01-13T20:27:41.543Z,9.05
2023-01-13T20:30:13.387Z,9.02
2023-01-13T20:32:42.824Z,8.91
2023-01-13T20:35:11.982Z,8.85
2023-01-13T20:37:40.541Z,9.00
2023-01-13T20:40:11.792Z,8.99
2023-01-13T20:42:44.849Z,9.05
2023-01-13T20:45:17.327Z,9.02
2023-01-13T20:47:47.938Z,8.84
2023-01-13T20:50:17.518Z,8.90
2023-01-13T20:52:45.790Z,8.99
2023-01-13T20:55:16.679Z,9.05
2023-01-13T20:57:48.575Z,8.92
2023-01-13T21:00:19.849Z,8.96
2023-01-13T21:02:49.798Z,8.92
2023-01-13T21:05:17.768Z,8.88
2023-01-13T21:07:45.641Z,8.81
2023-01-13T21:10:15.675Z,8.92
2023-01-13T21:13:04.390Z,8.90
2023-01-13T21:15:35.034Z,8.91
2023-01-13T21:18:22.011Z,8.78
2023-01-13T21:20:50.969Z,8.86
2023-01-13T21:23:18.930Z,8.85
2023-01-13T21:25:46.863Z,8.88
2023-01-13T21:28:16.706Z,8.85
2023-01-13T21:30:47.903Z,8.92
2023-01-13T21:33:17.188Z,8.88
2023-01-13T21:35:45.056Z,8.88
2023-01-13T21:38:13.724Z,9.01
2023-01-13T21:40:41.711Z,9.02
2023-01-13T21:43:30.833Z,9.08
2023-01-13T21:46:16.034Z,9.09
2023-01-13T21:48:45.680Z,9.02
2023-01-13T21:51:14.165Z,8.80
2023-01-13T21:53:42.031Z,8.80
2023-01-13T21:56:13.022Z,8.93
2023-01-13T21:58:40.989Z,9.04
2023-01-13T22:01:12.001Z,8.89
2023-01-13T22:03:54.737Z,8.82
2023-01-13T22:06:24.605Z,8.88
2023-01-13T22:08:53.926Z,8.96
2023-01-13T22:11:21.800Z,8.90
2023-01-13T22:14:09.152Z,8.93
2023-01-13T22:16:39.835Z,8.90
2023-01-13T22:19:08.929Z,8.80
2023-01-13T22:21:40.928Z,8.88
2023-01-13T22:24:09.266Z,9.05
2023-01-13T22:26:38.399Z,9.11
2023-01-13T22:29:06.324Z,9.07
2023-01-13T22:31:34.445Z,9.14
2023-01-13T22:34:02.334Z,9.22
2023-01-13T22:36:30.571Z,9.13
2023-01-13T22:39:01.108Z,9.16
2023-01-13T22:41:29.025Z,9.13
2023-01-13T22:43:56.956Z,9.05
2023-01-13T22:46:24.960Z,9.09
2023-01-13T22:48:54.777Z,9.12
2023-01-13T22:51:23.804Z,9.16
2023-01-13T22:53:52.384Z,9.10
2023-01-13T22:56:23.584Z,9.09
2023-01-13T22:58:54.516Z,9.02
2023-01-13T23:01:23.024Z,9.01
2023-01-13T23:03:51.291Z,9.00
2023-01-13T23:06:21.058Z,8.99
2023-01-13T23:08:49.432Z,8.96
2023-01-13T23:11:23.604Z,8.93
2023-01-13T23:13:57.552Z,8.97
2023-01-13T23:16:26.132Z,9.08
2023-01-13T23:18:54.204Z,9.11
2023-01-13T23:21:24.601Z,9.06
2023-01-13T23:23:52.695Z,9.04
2023-01-13T23:26:21.314Z,9.20
2023-01-13T23:28:49.692Z,9.04
2023-01-13T23:31:21.510Z,9.09
2023-01-13T23:33:49.980Z,9.11
2023-01-13T23:36:20.220Z,9.17
2023-01-13T23:38:49.305Z,9.28
2023-01-13T23:41:19.395Z,9.24
2023-01-13T23:43:51.178Z,9.29
2023-01-13T23:46:22.042Z,9.31
2023-01-13T23:48:50.877Z,9.33
2023-01-13T23:51:21.269Z,9.24
2023-01-13T23:53:51.156Z,9.27
2023-01-13T23:56:21.309Z,9.23
2023-01-13T23:58:50.062Z,9.30
